createdAt,value
2018-03-01T07:40:39.357Z,99.90
2018-03-01T07:43:10.146Z,99.90
2018-03-01T07:45:54.173Z,99.90
2018-03-01T07:48:23.894Z,99.90
2018-03-01T07:50:53.841Z,99.90
2018-03-01T07:53:23.417Z,99.90
2018-03-01T07:55:53.245Z,99.90
2018-03-01T07:58:23.691Z,99.90
2018-03-01T08:00:54.204Z,99.90
2018-03-01T08:03:25.221Z,99.90
2018-03-01T08:05:55.151Z,99.90
2018-03-01T08:08:25.968Z,99.90
2018-03-01T08:10:56.275Z,99.90
2018-03-01T08:13:26.056Z,99.90
2018-03-01T08:15:56.999Z,99.90
2018-03-01T08:18:28.766Z,99.90
2018-03-01T08:20:58.561Z,99.90
2018-03-01T08:23:28.576Z,99.90
2018-03-01T08:25:59.490Z,99.90
2018-03-01T08:28:34.896Z,99.90
2018-03-01T08:31:05.278Z,99.90
2018-03-01T08:33:36.135Z,99.90
2018-03-01T08:36:05.884Z,99.90
2018-03-01T08:38:35.355Z,99.90
2018-03-01T08:41:05.027Z,99.90
2018-03-01T08:43:35.667Z,99.90
2018-03-01T08:46:06.328Z,99.90
2018-03-01T08:48:36.581Z,99.90
2018-03-01T08:51:06.783Z,99.90
2018-03-01T08:53:36.493Z,99.90
2018-03-01T08:56:06.262Z,99.90
2018-03-01T08:58:37.663Z,99.90
2018-03-01T09:01:07.237Z,99.90
2018-03-01T09:03:37.536Z,99.90
2018-03-01T09:06:07.358Z,99.90
2018-03-01T09:08:37.678Z,99.90
2018-03-01T09:11:08.500Z,99.90
2018-03-01T09:13:42.416Z,99.90
2018-03-01T09:16:13.533Z,99.90
2018-03-01T09:18:43.100Z,99.90
2018-03-01T09:21:12.773Z,99.90
2018-03-01T09:23:43.441Z,99.90
2018-03-01T09:26:13.933Z,99.90
2018-03-01T09:28:43.634Z,99.90
2018-03-01T09:31:13.492Z,99.90
2018-03-01T09:33:43.365Z,99.90
2018-03-01T09:36:12.885Z,99.90
2018-03-01T09:38:43.677Z,99.90
2018-03-01T09:41:13.389Z,99.90
2018-03-01T09:43:43.944Z,99.90
2018-03-01T09:48:50.667Z,99.90
2018-03-01T09:51:20.132Z,99.90
2018-03-01T09:53:49.537Z,99.90
2018-03-01T09:56:20.133Z,99.90
2018-03-01T09:58:49.875Z,99.90
2018-03-01T10:01:19.466Z,99.90
2018-03-01T10:03:49.407Z,99.90
2018-03-01T10:06:19.342Z,99.90
2018-03-01T10:08:49.076Z,99.90
2018-03-01T10:11:24.115Z,99.90
2018-03-01T10:13:54.159Z,99.90
2018-03-01T10:16:23.964Z,99.90
2018-03-01T10:18:54.717Z,99.90
2018-03-01T10:21:25.435Z,99.90
2018-03-01T10:23:56.085Z,99.90
2018-03-01T10:26:25.689Z,99.90
2018-03-01T10:28:56.260Z,99.90
2018-03-01T10:31:26.162Z,99.90
2018-03-01T10:33:56.550Z,99.90
2018-03-01T10:36:26.286Z,99.90
2018-03-01T10:38:57.694Z,99.90
2018-03-01T10:41:30.033Z,99.90
2018-03-01T10:44:00.109Z,99.90
2018-03-01T11:30:12.689Z,99.90
2018-03-01T11:32:47.730Z,99.90
2018-03-01T11:35:17.399Z,99.90
2018-03-01T11:37:52.129Z,99.90
2018-03-01T11:40:21.901Z,99.90
2018-03-01T11:42:52.280Z,99.90
2018-03-01T11:45:23.016Z,99.90
2018-03-01T11:47:53.478Z,99.90
2018-03-01T11:50:23.104Z,99.90
2018-03-01T11:52:52.718Z,99.90
2018-03-01T11:55:23.399Z,99.90
2018-03-01T11:57:53.554Z,99.90
2018-03-01T12:00:23.896Z,99.90
2018-03-01T12:02:53.925Z,99.90
2018-03-01T12:05:23.846Z,99.90
2018-03-01T12:07:54.338Z,99.90
2018-03-01T12:10:25.095Z,99.90
2018-03-01T12:12:54.981Z,99.90
2018-03-01T12:15:24.583Z,99.90
2018-03-01T12:17:54.318Z,99.90
2018-03-01T12:20:25.663Z,99.90
2018-03-01T12:22:55.814Z,99.90
2018-03-01T12:25:25.222Z,99.90
2018-03-01T12:27:55.761Z,99.90
2018-03-01T12:30:30.650Z,99.90
2018-03-01T12:33:00.993Z,99.00
2018-03-01T12:35:30.608Z,98.90
2018-03-01T12:38:04.561Z,99.90
2018-03-01T12:40:34.514Z,98.30
2018-03-01T12:43:04.189Z,99.10
2018-03-01T12:45:34.696Z,97.70
2018-03-01T12:48:04.457Z,97.80
2018-03-01T12:50:40.483Z,99.90
2018-03-01T12:53:10.243Z,99.90
2018-03-01T12:55:39.784Z,99.90
2018-03-01T12:58:09.856Z,99.90
2018-03-01T13:00:39.489Z,99.90
2018-03-01T13:03:09.098Z,99.90
2018-03-01T13:05:39.547Z,99.90
2018-03-01T13:08:10.017Z,99.90
2018-03-01T13:10:40.441Z,99.90
2018-03-01T13:13:10.856Z,99.90
2018-03-01T13:15:41.276Z,99.90
2018-03-01T13:18:11.729Z,99.90
2018-03-01T13:20:41.382Z,99.90
2018-03-01T13:23:12.151Z,99.90
2018-03-01T13:25:42.273Z,99.90
2018-03-01T13:28:13.943Z,99.90
2018-03-01T13:30:43.626Z,99.90
2018-03-01T13:33:13.668Z,99.90
2018-03-01T13:35:44.527Z,99.90
2018-03-01T13:38:15.000Z,99.90
2018-03-01T13:40:44.609Z,99.90
2018-03-01T13:43:14.337Z,99.90
2018-03-01T13:45:44.081Z,99.90
2018-03-01T13:48:13.663Z,99.90
2018-03-01T13:50:44.068Z,99.90
2018-03-01T13:53:13.675Z,99.90
2018-03-01T13:55:43.380Z,98.40
2018-03-01T13:58:15.163Z,98.40
2018-03-01T14:03:09.773Z,96.60
2018-03-01T14:05:40.730Z,94.80
2018-03-01T14:08:11.431Z,94.90
2018-03-01T14:10:42.187Z,95.10
2018-03-01T14:13:12.669Z,93.90
2018-03-01T14:15:43.179Z,95.20
2018-03-01T14:18:12.900Z,94.70
2018-03-01T14:20:42.621Z,94.90
2018-03-01T14:23:13.095Z,98.20
2018-03-01T14:25:43.772Z,97.30
2018-03-01T14:28:14.989Z,98.30
2018-03-01T14:30:44.681Z,98.30
2018-03-01T14:33:15.163Z,99.90
2018-03-01T14:35:44.742Z,99.90
2018-03-01T14:39:16.485Z,99.90
2018-03-01T14:41:46.809Z,99.90
2018-03-01T14:44:17.133Z,99.90
2018-03-01T14:46:46.764Z,99.90
2018-03-01T14:49:16.823Z,99.90
2018-03-01T14:51:47.042Z,99.90
2018-03-01T14:54:16.524Z,99.90
2018-03-01T14:56:48.383Z,99.90
2018-03-01T14:59:32.521Z,99.90
2018-03-01T15:02:10.543Z,99.90
2018-03-01T15:04:40.082Z,99.90
2018-03-01T15:07:10.702Z,99.90
2018-03-01T15:09:41.817Z,99.90
2018-03-01T15:12:12.275Z,99.90
2018-03-01T15:14:42.592Z,99.90
2018-03-01T15:17:12.309Z,99.90
2018-03-01T15:19:41.996Z,99.90
2018-03-01T15:22:11.604Z,99.90
2018-03-01T15:24:40.975Z,99.90
2018-03-01T15:27:11.113Z,99.90
2018-03-01T15:29:40.666Z,99.90
2018-03-01T15:32:13.685Z,99.90
2018-03-01T15:34:44.465Z,99.90
2018-03-01T15:37:15.005Z,99.90
2018-03-01T15:39:45.226Z,99.90
2018-03-01T15:42:14.780Z,99.90
2018-03-01T15:44:46.082Z,99.90
2018-03-01T15:47:16.440Z,99.90
2018-03-01T15:49:52.839Z,99.90
2018-03-01T15:52:22.243Z,99.90
2018-03-01T15:54:52.068Z,99.90
2018-03-01T15:57:22.295Z,99.90
2018-03-01T15:59:51.968Z,99.90
2018-03-01T16:02:21.584Z,99.90
2018-03-01T16:04:51.011Z,99.90
2018-03-01T16:07:20.675Z,99.90
2018-03-01T16:09:50.931Z,99.90
2018-03-01T16:12:21.227Z,99.90
2018-03-01T16:14:51.795Z,99.90
2018-03-01T16:17:23.186Z,99.90
2018-03-01T16:19:53.467Z,99.90
2018-03-01T16:22:22.897Z,99.90
2018-03-01T16:24:53.044Z,99.90
2018-03-01T16:27:22.676Z,99.90
2018-03-01T16:29:52.068Z,99.90
2018-03-01T16:32:22.167Z,99.90
2018-03-01T16:34:52.329Z,99.90
2018-03-01T16:37:22.021Z,99.90
2018-03-01T16:39:51.608Z,99.90
2018-03-01T16:42:21.087Z,99.90
2018-03-01T16:44:50.570Z,99.90
2018-03-01T16:47:19.917Z,99.90
2018-03-01T16:49:50.117Z,99.90
2018-03-01T16:52:20.326Z,99.90
2018-03-01T16:54:50.533Z,99.90
2018-03-01T16:57:20.365Z,99.90
2018-03-01T16:59:50.393Z,99.90
2018-03-01T17:02:23.866Z,99.90
2018-03-01T17:04:53.353Z,99.90
2018-03-01T17:07:23.220Z,99.90
2018-03-01T17:09:53.387Z,99.90
2018-03-01T17:12:22.969Z,99.90
2018-03-01T17:14:53.125Z,99.90
2018-03-01T17:17:22.532Z,99.90
2018-03-01T17:19:52.801Z,99.90
2018-03-01T17:22:22.357Z,99.90
2018-03-01T17:24:52.573Z,99.90
2018-03-01T17:27:22.894Z,99.90
2018-03-01T17:29:53.739Z,99.90
2018-03-01T17:32:26.208Z,99.90
2018-03-01T17:34:56.584Z,99.90
2018-03-01T17:37:26.308Z,99.90
2018-03-01T17:39:55.817Z,99.90
2018-03-01T17:42:26.092Z,99.90
2018-03-01T17:44:56.096Z,99.90
2018-03-01T17:47:26.638Z,99.90
2018-03-01T17:49:56.246Z,99.90
2018-03-01T17:52:25.753Z,99.90
2018-03-01T17:54:56.252Z,99.90
2018-03-01T17:57:26.575Z,99.90
2018-03-01T17:59:56.604Z,99.90
2018-03-01T18:02:26.913Z,99.90
2018-03-01T18:04:56.276Z,99.90
2018-03-01T18:07:25.649Z,99.90
2018-03-01T18:09:54.952Z,99.90
2018-03-01T18:12:24.653Z,99.90
2018-03-01T18:14:53.972Z,99.90
2018-03-01T18:17:54.646Z,99.90
2018-03-01T18:20:24.870Z,99.90
2018-03-01T18:22:55.084Z,99.90
2018-03-01T18:25:24.504Z,99.90
2018-03-01T18:27:53.968Z,99.90
2018-03-01T18:30:23.586Z,99.90
2018-03-01T18:32:53.908Z,99.90
2018-03-01T18:35:24.317Z,99.90
2018-03-01T18:37:54.564Z,99.90
2018-03-01T18:40:23.990Z,99.90
2018-03-01T18:42:54.471Z,99.90
2018-03-01T18:45:25.198Z,99.90
2018-03-01T18:47:54.597Z,99.90
2018-03-01T18:50:55.095Z,99.90
2018-03-01T18:53:26.303Z,99.90
2018-03-01T18:55:56.155Z,99.90
2018-03-01T18:58:26.389Z,99.90
2018-03-01T19:00:55.895Z,99.90
2018-03-01T19:03:26.275Z,99.90
2018-03-01T19:05:55.545Z,99.90
2018-03-01T19:08:25.661Z,99.90
2018-03-01T19:10:55.892Z,99.90
2018-03-01T19:13:25.952Z,99.90
2018-03-01T19:15:55.373Z,99.90
2018-03-01T19:18:25.460Z,99.90
2018-03-01T19:20:54.853Z,99.90
2018-03-01T19:23:25.205Z,99.90
2018-03-01T19:25:54.656Z,99.90
2018-03-01T19:28:24.824Z,99.90
2018-03-01T19:30:54.957Z,99.90
2018-03-01T19:33:24.385Z,99.90
2018-03-01T19:35:53.780Z,99.90
2018-03-01T19:38:23.105Z,99.90
2018-03-01T19:40:52.490Z,99.90
2018-03-01T19:43:21.782Z,99.90
2018-03-01T19:45:51.072Z,99.90
2018-03-01T19:48:20.493Z,99.90
2018-03-01T19:50:50.643Z,99.90
2018-03-01T19:53:20.458Z,99.90
2018-03-01T19:55:49.867Z,99.90
2018-03-01T19:58:25.847Z,99.90
2018-03-01T20:00:55.173Z,99.90
2018-03-01T20:03:24.529Z,99.90
2018-03-01T20:05:53.885Z,99.90
2018-03-01T20:08:26.151Z,99.90
2018-03-01T20:11:00.672Z,99.90
2018-03-01T20:13:30.809Z,99.90
2018-03-01T20:16:07.183Z,99.90
2018-03-01T20:18:36.869Z,99.90
2018-03-01T20:21:06.256Z,99.90
2018-03-01T20:23:35.786Z,99.90
2018-03-01T20:26:05.157Z,99.90
2018-03-01T20:28:34.572Z,99.90
2018-03-01T20:31:04.790Z,99.90
2018-03-01T20:33:34.132Z,99.90
2018-03-01T20:36:03.463Z,99.90
2018-03-01T20:38:32.916Z,99.90
2018-03-01T20:41:03.046Z,99.90
2018-03-01T20:43:33.277Z,99.90
2018-03-01T20:46:03.393Z,99.90
2018-03-01T20:48:32.740Z,99.90
2018-03-01T20:51:02.185Z,99.90
2018-03-01T20:53:32.309Z,99.90
2018-03-01T20:56:02.537Z,99.90
2018-03-01T20:58:32.722Z,99.90
2018-03-01T21:01:02.083Z,99.90
2018-03-01T21:03:31.536Z,99.90
2018-03-01T21:09:32.651Z,99.90
2018-03-01T21:12:03.335Z,99.90
2018-03-01T21:15:35.725Z,99.90
2018-03-01T21:18:06.828Z,99.90
2018-03-01T21:20:36.161Z,99.90
2018-03-01T21:23:10.884Z,99.90
2018-03-01T21:25:40.265Z,99.90
2018-03-01T21:28:11.483Z,99.90
2018-03-01T21:30:40.901Z,99.90
2018-03-01T21:33:10.467Z,99.90
2018-03-01T21:35:40.644Z,99.90
2018-03-01T21:38:10.164Z,99.90
2018-03-01T21:40:39.529Z,99.90
2018-03-01T21:43:08.970Z,99.90
2018-03-01T21:45:38.497Z,99.90
2018-03-01T21:48:09.464Z,99.90
2018-03-01T21:50:38.976Z,99.90
2018-03-01T21:53:09.409Z,99.90
2018-03-01T21:55:39.193Z,99.90
2018-03-01T21:58:08.835Z,99.90
2018-03-01T22:00:39.177Z,99.90
2018-03-01T22:03:09.419Z,99.90
2018-03-01T22:05:39.668Z,99.90
2018-03-01T22:08:09.077Z,99.90
2018-03-01T22:10:38.937Z,99.90
2018-03-01T22:13:08.455Z,99.90
2018-03-01T22:15:38.051Z,99.90
2018-03-01T22:18:07.537Z,99.90
2018-03-01T22:20:36.973Z,99.90
2018-03-01T22:23:06.653Z,99.90
2018-03-01T22:25:36.936Z,99.90
2018-03-01T22:28:09.739Z,99.90
2018-03-01T22:30:39.346Z,99.90
2018-03-01T22:33:08.850Z,99.90
2018-03-01T22:35:38.373Z,99.90
2018-03-01T22:38:10.975Z,99.90
2018-03-01T22:40:40.728Z,99.90
2018-03-01T22:43:10.981Z,99.90
2018-03-01T22:45:40.628Z,99.90
2018-03-01T22:48:10.201Z,99.90
2018-03-01T22:50:39.790Z,99.90
2018-03-01T22:53:09.351Z,99.90
2018-03-01T22:55:40.052Z,99.90
2018-03-01T22:58:09.565Z,99.90
2018-03-01T23:00:47.733Z,99.90
2018-03-01T23:03:17.514Z,99.90
2018-03-01T23:05:48.001Z,99.90
2018-03-01T23:08:19.194Z,99.90
2018-03-01T23:10:49.746Z,99.90
2018-03-01T23:13:19.458Z,99.90
2018-03-01T23:15:49.253Z,99.90
2018-03-01T23:18:21.167Z,99.90
2018-03-01T23:20:51.394Z,99.90
2018-03-01T23:23:21.217Z,99.90
2018-03-01T23:25:50.635Z,99.90
2018-03-01T23:28:21.097Z,99.90
2018-03-01T23:30:50.620Z,99.90
2018-03-01T23:33:20.484Z,99.90
2018-03-01T23:35:51.453Z,99.90
2018-03-01T23:38:21.031Z,99.90
2018-03-01T23:40:50.709Z,99.90
2018-03-01T23:43:20.186Z,99.90
2018-03-01T23:45:50.021Z,99.90
2018-03-01T23:48:19.820Z,99.90
2018-03-01T23:50:49.463Z,99.90
2018-03-01T23:53:20.977Z,99.90
2018-03-01T23:55:50.697Z,99.90
2018-03-01T23:58:20.422Z,99.90
